Hadar, Nebraska
Current Conditions -  °F | °C
As of 5:15 PM on Friday 19 Dec 2014 (Local Time) from KOFK Reporting Station
Overcast Overcast  
Wind Chill: 26°   Ceiling: 1000
Heat Index: 33°   Visibility: 8mi
Dew Point: 29°   Wind: 8mph
Humidity: 85%   Direction: 180°S
Pressure: 30.08"   Gusts: NA
Location:  42.11°N, 97.45°W
Report Text: KOFK 192315Z AUTO 18007KT 8SM OVC010 01/M02 A3008 RMK AO2 T00061017
Loading
Personal Weather Stations






























Interactive Weather Map New forecast layout! Learn more

10-Day Weather Forecast

Advertisements
Track Severe Weather on mobile